Latest Weather Observations for Kuitpo

IDS60901

Issued at 11:21 am CST Wednesday 4 May 2016 (issued every 10 minutes, with the page automatically refreshed every 10 minutes)

About weather observations | Map of Adelaide area stations | Latest observations for Adelaide area | Other Formats
Station Details ID: 023887 Name: KUITPO FOREST RESERVE Lat: -35.17 Lon: 138.68 Height: 365.0 m
Data from the previous 72 hours. | See also: Recent months at Kuitpo
Date/Time
CST
Tmp

°C
App
Tmp
°C
Dew
Point
°C
Rel
Hum
%
Delta-T

°C
Wind Press
QNH
hPa
Press
MSL
hPa
Rain
since
9 am
mm
Dir
 
Spd
km/h
Gust
km/h
Spd
kts
Gust
kts
04/11:00am 13.0 9.6 9.3 78 1.9 W 17 26 9 14 1015.6 1015.4 0.0
04/10:30am 13.2 9.5 9.6 79 1.9 WNW 19 24 10 13 1015.6 1015.4 0.0
04/10:00am 12.7 10.5 10.8 88 1.0 WNW 13 20 7 11 1015.6 1015.4 0.0
04/09:30am 11.6 9.0 10.7 94 0.5 W 15 26 8 14 1015.6 1015.4 0.0
04/09:00am 11.7 9.9 10.9 95 0.4 NW 11 15 6 8 1015.5 1015.3 6.6
04/08:30am 11.3 9.2 9.9 91 0.7 NW 11 17 6 9 1015.2 1015.0 6.6
04/08:00am 10.6 8.6 10.0 96 0.3 NW 11 15 6 8 1015.0 1014.8 6.6
04/07:30am 10.1 8.4 9.8 98 0.2 NW 9 15 5 8 1014.7 1014.5 6.6
04/07:00am 10.0 8.7 9.9 99 0.1 NW 7 11 4 6 1014.3 1014.1 6.6
04/06:30am 10.1 9.0 10.0 99 0.1 NW 6 9 3 5 1013.8 1013.5 6.6
04/06:00am 10.0 8.3 9.9 99 0.1 WSW 9 13 5 7 1013.4 1013.1 6.4
04/05:30am 9.9 8.6 9.8 99 0.1 WSW 7 9 4 5 1013.2 1013.0 6.4
04/05:00am 10.1 8.4 10.0 99 0.1 WNW 9 19 5 10 1012.8 1012.6 6.4
04/04:30am 9.8 7.7 9.7 99 0.1 W 11 15 6 8 1012.7 1012.5 6.4
04/04:00am 10.2 7.0 10.1 99 0.1 W 17 28 9 15 1012.6 1012.4 6.4
04/03:30am 10.1 8.8 10.0 99 0.1 W 7 11 4 6 1012.6 1012.4 6.2
04/03:00am 10.1 8.8 10.0 99 0.1 W 7 13 4 7 1012.5 1012.3 6.0
04/02:30am 10.1 6.9 9.8 98 0.2 WSW 17 32 9 17 1012.4 1012.2 6.0
04/02:00am 10.6 8.6 10.3 98 0.2 NNW 11 15 6 8 1012.1 1011.9 5.0
04/01:30am 10.5 9.2 9.9 96 0.3 NW 7 11 4 6 1012.1 1011.9 5.0
04/01:00am 10.4 9.0 9.6 95 0.4 WNW 7 9 4 5 1012.1 1011.9 5.0
04/12:30am 10.4 7.9 9.6 95 0.4 WSW 13 19 7 10 1012.3 1012.1 5.0
04/12:00am 10.7 9.0 9.8 94 0.5 WNW 9 13 5 7 1012.1 1011.9 4.4
 
Date/Time
CST
Tmp

°C
App
Tmp
°C
Dew
Point
°C
Rel
Hum
%
Delta-T

°C
Wind Press
QNH
hPa
Press
MSL
hPa
Rain
since
9 am
mm
Dir
 
Spd
km/h
Gust
km/h
Spd
kts
Gust
kts
03/11:30pm 10.5 8.8 10.0 97 0.3 W 9 15 5 8 1012.0 1011.8 4.4
03/11:00pm 10.3 8.3 10.0 98 0.2 W 11 15 6 8 1012.0 1011.8 4.4
03/10:30pm 10.7 8.7 10.2 97 0.3 W 11 20 6 11 1012.2 1012.0 4.2
03/10:00pm 10.9 8.9 10.1 95 0.4 W 11 17 6 9 1012.1 1011.9 3.8
03/09:30pm 11.0 8.8 10.7 98 0.2 W 13 22 7 12 1011.8 1011.5 3.4
03/09:00pm 10.8 8.9 10.5 98 0.2 W 11 19 6 10 1011.6 1011.3 3.4
03/08:30pm 11.0 6.6 10.4 96 0.3 WSW 24 41 13 22 1011.3 1011.0 3.4
03/08:19pm 11.7 6.4 9.8 88 1.0 WSW 28 48 15 26 1010.9 1010.6 3.0
03/08:00pm 12.2 8.4 9.9 86 1.2 W 20 33 11 18 1010.8 1010.5 2.8
03/07:30pm 12.4 8.4 9.2 81 1.6 W 20 37 11 20 1010.2 1010.0 2.8
03/07:00pm 12.1 7.2 8.6 79 1.8 WSW 24 39 13 21 1009.8 1009.6 2.8
03/06:30pm 12.6 6.9 8.3 75 2.2 WSW 28 48 15 26 1009.2 1008.9 2.8
03/06:22pm 12.6 6.9 8.3 75 2.2 WSW 28 48 15 26 1009.0 1008.7 2.8
03/06:00pm 12.5 7.2 8.4 76 2.1 W 26 39 14 21 1008.8 1008.5 2.8
03/05:30pm 12.5 7.4 9.3 81 1.7 W 26 44 14 24 1008.3 1008.0 2.8
03/05:00pm 12.5 7.7 10.2 86 1.2 WSW 26 43 14 23 1008.0 1007.7 2.8
03/04:42pm 12.1 6.8 10.0 87 1.1 WSW 28 46 15 25 1007.7 1007.4 2.8
03/04:30pm 12.3 8.7 12.0 98 0.2 WSW 22 39 12 21 1007.6 1007.3 2.8
03/04:00pm 12.8 9.0 12.5 98 0.2 WSW 24 41 13 22 1007.1 1006.8 2.8
03/03:30pm 12.5 6.9 11.6 94 0.5 W 32 50 17 27 1006.5 1006.2 2.8
03/03:00pm 13.0 8.2 12.8 99 0.1 WSW 30 52 16 28 1005.8 1005.5 2.4
03/02:30pm 13.4 8.4 12.3 93 0.6 W 30 56 16 30 1005.2 1004.9 2.0
03/02:00pm 13.1 8.7 12.8 98 0.2 W 28 48 15 26 1005.2 1004.9 2.0
03/01:30pm 13.0 7.7 12.5 97 0.3 WSW 32 57 17 31 1005.1 1004.8 1.6
03/01:00pm 15.5 10.9 12.4 82 1.7 WNW 28 46 15 25 1004.7 1004.3 0.4
03/12:30pm 14.9 9.1 11.5 80 1.9 W 33 54 18 29 1004.7 1004.3 0.4
03/12:00pm 15.1 9.7 12.1 82 1.7 W 32 50 17 27 1005.2 1004.9 0.4
03/11:30am 15.3 8.7 11.5 78 2.1 WNW 37 56 20 30 1005.3 1005.0 0.4
03/11:00am 14.5 8.2 12.2 86 1.3 W 37 61 20 33 1005.2 1004.9 0.4
03/10:30am 14.1 9.3 13.9 99 0.1 W 32 54 17 29 1005.1 1004.8 0.4
03/10:00am 13.4 8.7 13.1 98 0.2 W 30 54 16 29 1005.0 1004.7 0.4
03/09:39am 13.8 8.7 13.6 99 0.1 WNW 33 52 18 28 1004.4 1004.1 0.0
03/09:30am 13.8 8.3 13.6 99 0.1 WNW 35 50 19 27 1004.4 1004.1 0.0
03/09:00am 13.7 7.0 13.5 99 0.1 WNW 41 69 22 37 1004.3 1004.0 5.0
03/08:30am 13.8 7.5 13.5 98 0.2 WNW 39 57 21 31 1003.8 1003.5 3.4
03/08:00am 14.2 6.8 12.9 92 0.7 WNW 44 69 24 37 1003.5 1003.2 3.0
03/07:30am 13.9 8.4 12.5 91 0.8 NW 33 59 18 32 1003.4 1003.1 3.0
03/07:00am 14.0 7.3 12.2 89 1.0 NW 39 59 21 32 1003.2 1002.9 3.0
03/06:30am 13.8 7.8 12.2 90 0.9 NW 35 57 19 31 1003.4 1003.1 3.0
03/06:00am 13.9 7.9 12.1 89 1.0 NW 35 61 19 33 1003.6 1003.3 3.0
03/05:30am 13.7 7.8 12.3 91 0.8 WNW 35 54 19 29 1003.5 1003.2 3.0
03/05:00am 13.6 8.2 12.2 91 0.8 NW 32 50 17 27 1003.6 1003.3 3.0
03/04:30am 13.5 8.1 12.1 91 0.8 NW 32 56 17 30 1003.8 1003.5 3.0
03/04:00am 13.4 6.9 11.8 90 0.9 NW 37 63 20 34 1004.1 1003.8 3.0
03/03:30am 13.2 8.1 11.8 91 0.8 NW 30 52 16 28 1004.3 1004.0 2.6
03/03:00am 13.8 8.1 11.7 87 1.1 NW 33 57 18 31 1004.7 1004.3 2.6
03/02:30am 13.8 8.7 11.8 88 1.1 NW 30 50 16 27 1005.1 1004.8 2.6
03/02:00am 13.8 8.6 11.7 87 1.1 NW 30 54 16 29 1005.7 1005.4 2.6
03/01:31am 14.0 8.9 11.9 87 1.2 NW 30 52 16 28 1006.1 1005.8 2.6
03/01:30am 14.0 9.3 11.9 87 1.2 NW 28 43 15 23 1006.2 1005.9 2.6
03/01:00am 14.2 8.8 12.1 87 1.2 NW 32 52 17 28 1006.6 1006.3 2.6
03/12:30am 14.0 8.6 12.2 89 1.0 WNW 32 57 17 31 1006.9 1006.6 2.6
03/12:00am 13.6 9.0 12.3 92 0.7 NW 28 48 15 26 1007.2 1007.0 2.6
 
Date/Time
CST
Tmp

°C
App
Tmp
°C
Dew
Point
°C
Rel
Hum
%
Delta-T

°C
Wind Press
QNH
hPa
Press
MSL
hPa
Rain
since
9 am
mm
Dir
 
Spd
km/h
Gust
km/h
Spd
kts
Gust
kts
02/11:30pm 13.3 8.1 12.7 96 0.3 WNW 32 54 17 29 1007.9 1007.6 2.6
02/11:00pm 13.8 9.2 12.4 91 0.8 WNW 28 50 15 27 1008.1 1007.8 1.8
02/10:32pm 14.5 9.0 11.8 84 1.5 NW 32 52 17 28 1008.2 1007.9 1.2
02/10:30pm 14.6 9.4 11.6 82 1.6 NW 30 46 16 25 1008.2 1007.9 1.2
02/10:02pm 14.7 9.1 11.5 81 1.7 NW 32 50 17 27 1008.4 1008.1 1.2
02/10:00pm 14.7 8.9 11.5 81 1.7 WNW 33 48 18 26 1008.4 1008.1 1.2
02/09:40pm 14.6 9.7 11.2 80 1.8 NW 28 56 15 30 1008.5 1008.2 1.2
02/09:30pm 14.5 10.1 11.8 84 1.5 NW 26 39 14 21 1008.6 1008.3 1.2
02/09:00pm 14.0 9.5 12.6 91 0.8 NW 28 41 15 22 1008.7 1008.4 1.2
02/08:30pm 14.2 11.0 13.1 93 0.6 WNW 22 35 12 19 1008.9 1008.6 1.2
02/08:00pm 14.1 10.4 12.7 91 0.8 WNW 24 43 13 23 1009.1 1008.8 1.2
02/07:30pm 13.7 9.1 12.4 92 0.7 WNW 28 41 15 22 1009.1 1008.8 1.2
02/07:17pm 14.0 9.3 11.9 87 1.2 WNW 28 48 15 26 1009.1 1008.8 1.2
02/07:00pm 13.5 9.4 11.6 88 1.0 WNW 24 41 13 22 1009.1 1008.8 1.2
02/06:31pm 14.1 9.5 12.3 89 1.0 WNW 28 46 15 25 1009.0 1008.7 1.0
02/06:30pm 14.3 9.2 12.0 86 1.3 WNW 30 46 16 25 1009.0 1008.7 1.0
02/06:05pm 15.5 10.5 10.9 74 2.5 WNW 28 54 15 29 1008.6 1008.3 0.4
02/06:00pm 15.4 10.5 11.4 77 2.2 WNW 28 41 15 22 1008.6 1008.3 0.4
02/05:31pm 15.4 9.6 10.8 74 2.5 NW 32 50 17 27 1008.6 1008.3 0.4
02/05:30pm 15.4 9.6 10.8 74 2.5 WNW 32 44 17 24 1008.6 1008.3 0.4
02/05:17pm 15.5 10.6 11.3 76 2.3 NW 28 50 15 27 1008.6 1008.3 0.4
02/05:00pm 15.1 11.1 11.7 80 1.9 NW 24 39 13 21 1008.6 1008.3 0.4
02/04:30pm 15.3 10.3 11.1 76 2.3 WNW 28 50 15 27 1008.7 1008.4 0.4
02/04:00pm 15.7 10.6 10.5 71 2.8 WNW 28 48 15 26 1009.0 1008.7 0.4
02/03:30pm 15.5 9.7 10.9 74 2.5 WNW 32 52 17 28 1009.1 1008.8 0.4
02/03:00pm 15.2 9.7 10.4 73 2.6 WNW 30 54 16 29 1009.3 1009.0 0.4
02/02:30pm 14.9 8.8 10.5 75 2.4 WNW 33 54 18 29 1009.4 1009.1 0.4
02/02:02pm 14.9 8.9 10.7 76 2.3 WNW 33 52 18 28 1009.5 1009.3 0.2
02/02:00pm 14.8 8.9 10.6 76 2.3 WNW 32 48 17 26 1009.6 1009.4 0.2
02/01:30pm 15.2 9.9 10.0 71 2.8 NW 28 48 15 26 1009.8 1009.6 0.2
02/01:00pm 15.1 9.1 8.8 66 3.3 NW 30 52 16 28 1010.1 1009.9 0.2
02/12:30pm 14.5 9.2 9.9 74 2.4 NW 28 46 15 25 1010.6 1010.3 0.2
02/12:01pm 14.1 8.9 10.3 78 2.0 WNW 28 46 15 25 1011.1 1010.8 0.2
02/12:00pm 14.1 9.3 10.3 78 2.0 WNW 26 44 14 24 1011.0 1010.7 0.2
02/11:30am 12.7 9.5 11.3 91 0.8 NW 19 32 10 17 1011.7 1011.4 0.0
02/11:00am 14.1 9.3 10.3 78 2.0 NW 26 43 14 23 1011.9 1011.7 0.0
02/10:44am 13.8 8.5 9.8 77 2.1 WNW 28 46 15 25 1012.0 1011.8 0.0
02/10:30am 14.0 9.1 10.0 77 2.1 NW 26 44 14 24 1012.1 1011.9 0.0
02/10:00am 14.3 8.4 9.1 71 2.7 NW 30 50 16 27 1012.2 1012.0 0.0
02/09:30am 13.8 8.3 9.0 73 2.5 NW 28 48 15 26 1012.2 1012.0 0.0
02/09:21am 13.6 8.0 8.7 72 2.5 NW 28 48 15 26 1012.2 1012.0 0.0
02/09:00am 13.2 8.3 8.5 73 2.4 NW 24 44 13 24 1012.1 1011.9 0.2
02/08:30am 12.5 8.3 8.4 76 2.1 NW 20 32 11 17 1012.1 1011.9 0.2
02/08:00am 11.8 7.6 8.3 79 1.8 NW 20 35 11 19 1012.2 1012.0 0.2
02/07:30am 11.2 6.6 8.1 81 1.5 NW 22 35 12 19 1012.0 1011.8 0.2
02/07:00am 11.3 6.9 7.6 78 1.8 NW 20 33 11 18 1012.2 1012.0 0.2
02/06:30am 11.8 7.4 6.5 70 2.6 NW 19 32 10 17 1011.9 1011.7 0.2
02/06:00am 12.6 6.7 6.0 64 3.2 WNW 26 44 14 24 1012.1 1011.9 0.2
02/05:30am 11.8 7.7 6.1 68 2.7 NW 17 24 9 13 1012.0 1011.8 0.2
02/05:00am 11.1 7.2 7.2 77 1.9 NW 17 26 9 14 1012.1 1011.9 0.2
02/04:30am 11.2 7.4 7.5 78 1.8 NNW 17 24 9 13 1012.4 1012.2 0.2
02/04:00am 10.8 6.6 8.2 84 1.3 NW 20 32 11 17 1012.5 1012.3 0.2
02/03:30am 11.0 7.4 8.4 84 1.3 NNW 17 26 9 14 1012.7 1012.5 0.2
02/03:00am 11.4 7.3 7.7 78 1.8 NNW 19 30 10 16 1013.4 1013.1 0.2
02/02:30am 11.9 8.4 7.2 73 2.3 NW 15 22 8 12 1013.9 1013.6 0.2
02/02:00am 12.0 8.1 6.9 71 2.5 NW 17 26 9 14 1013.9 1013.6 0.2
02/01:30am 11.8 8.1 6.3 69 2.6 NW 15 24 8 13 1014.2 1014.0 0.2
02/01:00am 11.7 8.4 6.4 70 2.6 NW 13 20 7 11 1014.5 1014.3 0.2
02/12:30am 11.7 7.9 5.6 66 2.9 WNW 15 24 8 13 1014.8 1014.6 0.2
02/12:00am 11.7 7.4 5.3 65 3.0 WNW 17 28 9 15 1015.2 1015.0 0.2
 
Date/Time
CST
Tmp

°C
App
Tmp
°C
Dew
Point
°C
Rel
Hum
%
Delta-T

°C
Wind Press
QNH
hPa
Press
MSL
hPa
Rain
since
9 am
mm
Dir
 
Spd
km/h
Gust
km/h
Spd
kts
Gust
kts
01/11:30pm 11.9 8.2 4.6 61 3.4 WNW 13 17 7 9 1015.5 1015.3 0.2
01/11:00pm 11.9 7.8 4.6 61 3.4 NW 15 20 8 11 1015.7 1015.5 0.2
01/10:30pm 11.6 7.7 5.3 65 3.0 WNW 15 22 8 12 1016.2 1015.9 0.2
01/10:00pm 11.5 8.1 5.8 68 2.7 WNW 13 17 7 9 1016.5 1016.2 0.2
01/09:30pm 11.4 8.5 6.3 71 2.4 WNW 11 17 6 9 1016.7 1016.5 0.2
01/09:00pm 11.3 8.8 6.6 73 2.3 WNW 9 15 5 8 1016.7 1016.5 0.2
01/08:30pm 11.3 8.7 6.2 71 2.4 NW 9 15 5 8 1016.7 1016.5 0.2
01/08:00pm 11.5 8.5 6.2 70 2.5 NW 11 19 6 10 1016.6 1016.4 0.2
01/07:30pm 11.7 9.1 6.0 68 2.7 NNW 9 15 5 8 1016.6 1016.4 0.2
01/07:00pm 11.7 8.9 5.3 65 3.0 NW 9 13 5 7 1016.6 1016.4 0.2
01/06:30pm 11.4 9.0 5.3 66 2.9 NNW 7 11 4 6 1016.5 1016.2 0.2
01/06:00pm 11.3 8.8 5.0 65 2.9 W 7 9 4 5 1016.2 1015.9 0.2
01/05:30pm 12.2 9.4 5.1 62 3.3 NW 9 13 5 7 1016.2 1015.9 0.2
01/05:00pm 13.4 10.7 5.6 59 3.7 WNW 9 15 5 8 1016.0 1015.8 0.2
01/04:30pm 14.0 10.9 5.4 56 4.1 WSW 11 20 6 11 1015.8 1015.6 0.2
01/04:00pm 14.0 10.2 5.6 57 4.0 W 15 24 8 13 1015.7 1015.5 0.2
01/03:30pm 14.3 10.0 5.4 55 4.3 WSW 17 28 9 15 1015.6 1015.4 0.2
01/03:00pm 14.6 10.5 6.4 58 4.0 W 17 26 9 14 1015.5 1015.3 0.2
01/02:30pm 14.5 10.8 6.3 58 4.0 W 15 24 8 13 1015.3 1015.1 0.2
01/02:00pm 14.6 10.1 6.2 57 4.1 WSW 19 32 10 17 1015.1 1014.9 0.2
01/01:30pm 14.1 9.3 5.7 57 4.1 WSW 20 33 11 18 1015.2 1015.0 0.2
01/01:00pm 13.6 8.9 5.0 56 4.1 W 19 35 10 19 1015.1 1014.9 0.2
01/12:30pm 13.9 9.1 5.8 58 3.9 W 20 28 11 15 1015.3 1015.1 0.2
01/12:00pm 14.0 9.2 5.6 57 4.0 WSW 20 33 11 18 1015.3 1015.1 0.2
01/11:30am 14.0 9.4 6.4 60 3.7 WSW 20 32 11 17 1015.4 1015.2 0.0

Latest Capital City Observations: Canberra | Sydney | Melbourne | Brisbane | Adelaide | Perth | Hobart | Darwin

Other Formats:

Comma delimited format used in spreadsheet applications
http://www.bom.gov.au/fwo/IDS60901/IDS60901.94683.axf

JavaScript Object Notation format (JSON) in row-major order
http://www.bom.gov.au/fwo/IDS60901/IDS60901.94683.json